Latest Weather Observations for Parafield

IDS60901

Issued at 10:41 pm CDT Friday 19 December 2014 (issued every 10 minutes, with the page automatically refreshed every 10 minutes)

About weather observations | Map of Adelaide area stations | Latest observations for Adelaide area | Other Formats
Station Details ID: 023013 Name: PARAFIELD AIRPORT Lat: -34.80 Lon: 138.63 Height: 9.5 m
Data from the previous 72 hours. | See also: Recent months at Parafield
Date/Time
CDT
Tmp

°C
App
Tmp
°C
Dew
Point
°C
Rel
Hum
%
Delta-T

°C
Wind Press
QNH
hPa
Press
MSL
hPa
Rain
since
9 am
mm
Dir
 
Spd
km/h
Gust
km/h
Spd
kts
Gust
kts
19/10:30pm 16.2 13.1 8.7 61 3.8 SE 15 20 8 11 1020.6 1020.6 0.0
19/10:00pm 16.7 13.2 8.7 59 4.1 SE 17 22 9 12 1020.4 1020.4 0.0
19/09:30pm 17.6 14.1 8.7 56 4.6 SE 17 20 9 11 1020.3 1020.3 0.0
19/09:00pm 18.4 14.2 8.4 52 5.1 SE 20 28 11 15 1019.9 1019.9 0.0
19/08:30pm 19.1 15.4 10.1 56 4.8 SSW 20 28 11 15 1019.5 1019.5 0.0
19/08:00pm 19.5 14.0 10.5 56 4.9 SSW 30 37 16 20 1019.5 1019.5 0.0
19/07:30pm 20.1 14.7 10.8 55 5.1 SSW 30 39 16 21 1019.3 1019.3 0.0
19/07:00pm 20.8 16.1 10.6 52 5.5 SW 26 39 14 21 1019.1 1019.1 0.0
19/06:30pm 21.6 15.9 9.8 47 6.3 SW 30 35 16 19 1019.1 1019.1 0.0
19/06:00pm 22.0 16.4 8.9 43 7.0 SW 28 33 15 18 1018.8 1018.8 0.0
19/05:30pm 22.2 17.2 8.0 40 7.4 SW 24 35 13 19 1018.8 1018.8 0.0
19/05:00pm 22.5 17.5 7.9 39 7.6 SW 24 33 13 18 1018.9 1018.9 0.0
19/04:30pm 22.7 18.3 8.8 41 7.4 SW 22 32 12 17 1019.3 1019.3 0.0
19/04:00pm 22.4 18.1 9.2 43 7.1 WSW 22 33 12 18 1019.5 1019.5 0.0
19/03:30pm 22.5 18.2 9.3 43 7.1 SW 22 35 12 19 1019.6 1019.6 0.0
19/03:00pm 22.0 17.7 9.5 45 6.7 SW 22 30 12 16 1019.9 1019.9 0.0
19/02:30pm 21.4 17.1 9.3 46 6.4 WSW 22 33 12 18 1020.1 1020.1 0.0
19/02:00pm 21.5 17.1 9.1 45 6.6 WSW 22 35 12 19 1020.3 1020.3 0.0
19/01:30pm 22.4 17.6 8.9 42 7.2 W 24 35 13 19 1020.3 1020.3 0.0
19/01:00pm 21.5 17.0 8.4 43 6.9 WSW 22 35 12 19 1020.6 1020.6 0.0
19/12:30pm 21.0 16.4 8.0 43 6.7 W 22 32 12 17 1020.7 1020.7 0.0
19/12:00pm 21.5 16.9 8.1 42 7.0 W 22 35 12 19 1020.5 1020.5 0.0
19/11:30am 21.1 17.8 8.0 43 6.8 SW 15 28 8 15 1020.5 1020.5 0.0
19/11:00am 20.7 17.3 5.9 38 7.4 S 13 20 7 11 1020.6 1020.6 0.0
19/10:30am 19.9 17.3 6.3 41 6.8 SSW 9 20 5 11 1020.5 1020.5 0.0
19/10:00am 19.6 15.8 6.0 41 6.7 SW 15 20 8 11 1020.6 1020.6 0.0
19/09:30am 19.1 15.8 6.2 43 6.4 SW 13 20 7 11 1020.6 1020.6 0.0
19/09:00am 17.9 14.5 5.8 45 5.9 SSW 13 20 7 11 1020.4 1020.4 0.8
19/08:30am 17.4 13.8 6.9 50 5.2 S 15 20 8 11 1020.1 1020.1 0.8
19/08:00am 16.9 15.4 7.0 52 4.9 S 4 9 2 5 1019.8 1019.8 0.8
19/07:30am 15.2 14.6 7.2 59 3.9 CALM 0 0 0 0 1019.5 1019.5 0.8
19/07:00am 13.0 11.3 7.7 70 2.6 SE 6 7 3 4 1019.0 1019.0 0.8
19/06:30am 10.6 9.0 6.2 74 2.0 SSE 4 9 2 5 1018.7 1018.7 0.8
19/06:00am 11.1 9.6 6.6 74 2.1 SE 4 7 2 4 1018.4 1018.4 0.8
19/05:30am 11.3 10.5 6.6 73 2.2 CALM 0 4 0 2 1018.3 1018.3 0.8
19/05:00am 12.0 11.2 6.7 70 2.5 CALM 0 0 0 0 1018.2 1018.2 0.8
19/04:30am 11.3 10.5 6.6 73 2.2 CALM 0 0 0 0 1017.9 1017.9 0.8
19/04:00am 11.4 10.6 6.5 72 2.3 CALM 0 0 0 0 1017.9 1017.9 0.8
19/03:30am 11.5 9.3 6.0 69 2.6 SE 7 9 4 5 1017.8 1017.8 0.8
19/03:00am 12.4 10.4 6.9 69 2.6 SE 7 9 4 5 1017.9 1017.9 0.8
19/02:30am 11.8 10.0 7.3 74 2.2 SSE 6 7 3 4 1018.1 1018.1 0.8
19/02:00am 12.2 10.8 7.1 71 2.5 SSE 4 7 2 4 1018.1 1018.1 0.8
19/01:30am 12.9 11.2 7.6 70 2.6 SSE 6 7 3 4 1018.0 1018.0 0.8
19/01:00am 12.7 10.3 7.2 69 2.7 SSE 9 13 5 7 1018.1 1018.1 0.8
19/12:30am 13.0 9.8 7.0 67 2.9 S 13 15 7 8 1018.1 1018.1 0.8
19/12:00am 13.7 10.9 6.8 63 3.3 S 11 17 6 9 1018.0 1018.0 0.8
 
Date/Time
CDT
Tmp

°C
App
Tmp
°C
Dew
Point
°C
Rel
Hum
%
Delta-T

°C
Wind Press
QNH
hPa
Press
MSL
hPa
Rain
since
9 am
mm
Dir
 
Spd
km/h
Gust
km/h
Spd
kts
Gust
kts
18/11:30pm 14.4 11.1 6.5 59 3.8 S 13 17 7 9 1017.8 1017.8 0.8
18/11:00pm 15.1 11.4 6.1 55 4.3 S 15 20 8 11 1017.5 1017.5 0.8
18/10:30pm 16.2 11.4 5.5 49 5.1 S 20 26 11 14 1017.1 1017.1 0.8
18/10:00pm 16.7 12.2 6.8 52 4.9 S 20 24 11 13 1016.8 1016.8 0.8
18/09:30pm 17.2 12.7 7.0 51 5.1 SSW 20 26 11 14 1016.4 1016.4 0.8
18/09:00pm 17.5 13.1 7.5 52 5.0 SSW 20 28 11 15 1016.1 1016.1 0.8
18/08:30pm 17.9 12.0 7.3 50 5.3 SSW 28 35 15 19 1015.9 1015.9 0.8
18/08:00pm 18.4 13.3 7.8 50 5.4 SSW 24 32 13 17 1015.5 1015.5 0.8
18/07:30pm 19.3 14.8 8.6 50 5.6 SSW 22 32 12 17 1015.1 1015.1 0.8
18/07:00pm 19.7 14.2 10.4 55 5.0 SW 30 41 16 22 1014.8 1014.8 0.8
18/06:30pm 19.9 14.0 10.3 54 5.2 SW 32 41 17 22 1014.5 1014.5 0.8
18/06:00pm 20.7 14.9 10.8 53 5.4 SSW 32 41 17 22 1013.9 1013.9 0.8
18/05:30pm 21.4 15.3 9.9 48 6.2 SW 32 41 17 22 1013.5 1013.5 0.8
18/05:00pm 22.4 15.9 8.1 40 7.5 SW 32 41 17 22 1013.4 1013.4 0.8
18/04:30pm 23.6 18.1 9.2 40 7.8 SW 28 37 15 20 1013.2 1013.2 0.8
18/04:00pm 22.9 15.6 7.4 37 8.1 SW 35 44 19 24 1013.2 1013.2 0.8
18/03:30pm 23.1 15.0 7.2 36 8.3 SW 39 50 21 27 1013.0 1013.0 0.8
18/03:00pm 23.1 16.0 8.0 38 8.0 WSW 35 46 19 25 1012.7 1012.7 0.8
18/02:30pm 22.4 15.6 7.8 39 7.6 SW 33 50 18 27 1012.7 1012.7 0.8
18/02:00pm 21.7 15.1 9.9 47 6.4 SW 35 48 19 26 1012.8 1012.8 0.8
18/01:30pm 21.2 16.2 12.1 56 5.1 SW 30 43 16 23 1012.7 1012.7 0.8
18/01:00pm 21.5 16.8 12.1 55 5.3 WSW 28 37 15 20 1012.5 1012.5 0.4
18/12:30pm 20.1 15.8 13.3 65 3.9 W 28 35 15 19 1012.6 1012.6 0.4
18/12:00pm 18.9 17.1 14.4 75 2.6 WSW 17 24 9 13 1012.5 1012.5 0.4
18/11:30am 19.2 16.3 14.0 72 3.0 SW 22 32 12 17 1012.3 1012.3 0.0
18/11:00am 21.4 15.7 9.9 48 6.2 WSW 30 43 16 23 1012.0 1012.0 0.0
18/10:30am 20.6 14.6 10.1 51 5.7 W 32 43 17 23 1012.0 1012.0 0.0
18/10:00am 20.8 15.7 10.6 52 5.6 W 28 39 15 21 1011.9 1011.9 0.0
18/09:30am 20.0 15.3 9.3 50 5.7 W 24 35 13 19 1011.6 1011.6 0.0
18/09:00am 19.5 14.5 9.7 53 5.2 WNW 26 32 14 17 1011.5 1011.5 0.0
18/08:30am 19.5 14.6 10.0 54 5.1 WNW 26 32 14 17 1011.1 1011.1 0.0
18/08:00am 18.6 14.1 10.2 58 4.5 WSW 24 32 13 17 1010.8 1010.8 0.0
18/07:30am 18.5 14.4 10.1 58 4.5 WSW 22 30 12 16 1010.5 1010.5 0.0
18/07:00am 14.9 13.7 9.5 70 2.8 NE 6 7 3 4 1010.4 1010.4 0.0
18/06:30am 12.6 11.0 8.7 77 1.9 NE 7 9 4 5 1010.0 1010.0 0.0
18/06:00am 12.8 11.2 8.7 76 2.1 NE 7 7 4 4 1009.8 1009.8 0.0
18/05:30am 11.9 9.8 8.2 78 1.8 NNE 9 11 5 6 1009.5 1009.5 0.0
18/05:00am 12.2 9.7 8.3 77 1.9 NNE 11 13 6 7 1009.0 1009.0 0.0
18/04:30am 12.7 10.7 8.8 77 2.0 N 9 13 5 7 1008.8 1008.8 0.0
18/04:00am 12.2 10.1 8.3 77 1.9 NE 9 11 5 6 1008.3 1008.3 0.0
18/03:30am 12.1 11.3 6.6 69 2.6 CALM 0 0 0 0 1008.4 1008.4 0.0
18/03:00am 13.2 11.8 8.7 74 2.3 N 6 9 3 5 1008.0 1008.0 0.0
18/02:30am 13.0 11.2 7.9 71 2.5 NNE 7 9 4 5 1008.1 1008.1 0.0
18/02:00am 13.6 11.9 8.4 71 2.6 NNE 7 9 4 5 1008.2 1008.2 0.0
18/01:30am 14.3 12.8 8.3 67 3.0 ENE 6 7 3 4 1008.3 1008.3 0.0
18/01:00am 13.9 13.5 8.3 69 2.8 CALM 0 0 0 0 1008.5 1008.5 0.0
18/12:30am 15.2 13.9 9.1 67 3.1 ESE 6 6 3 3 1008.7 1008.7 0.0
18/12:00am 15.5 15.0 9.4 67 3.2 S 2 6 1 3 1009.1 1009.1 0.0
 
Date/Time
CDT
Tmp

°C
App
Tmp
°C
Dew
Point
°C
Rel
Hum
%
Delta-T

°C
Wind Press
QNH
hPa
Press
MSL
hPa
Rain
since
9 am
mm
Dir
 
Spd
km/h
Gust
km/h
Spd
kts
Gust
kts
17/11:30pm 15.9 13.7 9.3 65 3.4 SW 11 15 6 8 1009.3 1009.3 0.0
17/11:00pm 16.9 13.2 9.6 62 3.8 SW 19 26 10 14 1009.4 1009.4 0.0
17/10:30pm 17.2 13.9 9.4 60 4.1 SW 17 26 9 14 1009.0 1009.0 0.0
17/10:00pm 17.6 14.2 9.2 58 4.4 SW 17 22 9 12 1008.8 1008.8 0.0
17/09:30pm 17.7 14.0 8.0 53 4.9 SW 17 20 9 11 1008.5 1008.5 0.0
17/09:00pm 18.5 14.2 7.0 47 5.8 SW 19 22 10 12 1008.3 1008.3 0.0
17/08:30pm 18.6 15.6 4.0 38 6.9 WSW 9 15 5 8 1007.9 1007.9 0.0
17/08:00pm 20.4 17.6 3.2 32 8.1 SSW 7 11 4 6 1007.6 1007.6 0.0
17/07:30pm 21.7 19.0 3.9 31 8.6 SSW 7 11 4 6 1007.3 1007.3 0.0
17/07:00pm 21.7 17.8 3.4 30 8.8 WSW 13 17 7 9 1007.3 1007.3 0.0
17/06:30pm 21.3 18.3 4.0 32 8.4 SSW 9 15 5 8 1007.6 1007.6 0.0
17/06:00pm 22.3 18.4 3.4 29 9.1 W 13 19 7 10 1007.7 1007.7 0.0
17/05:30pm 21.5 16.4 3.2 30 8.7 W 19 26 10 14 1007.9 1007.9 0.0
17/05:00pm 23.1 17.6 4.1 29 9.3 W 22 30 12 16 1008.0 1008.0 0.0
17/04:30pm 22.5 18.0 4.1 30 9.0 WSW 17 26 9 14 1008.3 1008.3 0.0
17/04:00pm 22.4 17.3 4.0 30 9.0 WSW 20 30 11 16 1008.5 1008.5 0.0
17/03:30pm 22.6 18.5 4.2 30 9.0 WSW 15 24 8 13 1008.8 1008.8 0.0
17/03:00pm 22.2 17.3 4.3 31 8.8 SW 19 30 10 16 1008.9 1008.9 0.0
17/02:30pm 22.5 17.3 3.6 29 9.1 WSW 20 35 11 19 1009.3 1009.3 0.0
17/02:00pm 22.0 17.8 3.6 30 8.9 WSW 15 24 8 13 1009.5 1009.5 0.0
17/01:30pm 22.1 17.5 3.7 30 8.9 WNW 17 28 9 15 1009.8 1009.8 0.0
17/01:00pm 20.7 15.9 4.7 35 7.8 WSW 19 30 10 16 1010.3 1010.3 0.0
17/12:30pm 21.7 17.7 6.8 38 7.6 WSW 17 28 9 15 1010.3 1010.3 0.0
17/12:00pm 20.0 16.7 6.4 41 6.8 WSW 13 22 7 12 1010.6 1010.6 0.0
17/11:30am 19.4 15.6 5.8 41 6.7 W 15 22 8 12 1011.0 1011.0 0.0
17/11:00am 18.9 16.2 5.4 41 6.6 WSW 9 17 5 9 1011.1 1011.1 0.0
17/10:30am 18.2 15.5 5.8 44 6.1 SSW 9 15 5 8 1011.4 1011.4 0.0
17/10:00am 17.9 15.4 6.4 47 5.7 WSW 9 15 5 8 1011.7 1011.7 0.0
17/09:30am 17.9 16.1 5.5 44 6.0 NE 4 11 2 6 1011.7 1011.7 0.0
17/09:00am 16.2 14.4 7.2 55 4.5 NW 6 9 3 5 1011.9 1011.9 0.0
17/08:30am 15.6 13.6 7.1 57 4.2 NNW 7 9 4 5 1011.9 1011.9 0.0
17/08:00am 14.7 13.7 7.3 61 3.6 NNW 2 6 1 3 1011.8 1011.8 0.0
17/07:30am 14.1 13.5 7.4 64 3.3 CALM 0 6 0 3 1011.5 1011.5 0.0
17/07:00am 13.0 11.0 7.2 68 2.8 N 7 7 4 4 1011.4 1011.4 0.0
17/06:30am 11.6 10.6 7.3 75 2.1 ENE 2 7 1 4 1011.0 1011.0 0.0
17/06:00am 11.2 9.2 6.3 72 2.3 ENE 6 6 3 3 1010.5 1010.5 0.0
17/05:30am 10.5 8.2 5.7 72 2.2 ENE 7 9 4 5 1010.0 1010.0 0.0
17/05:00am 11.1 8.9 6.3 72 2.2 NE 7 7 4 4 1009.7 1009.7 0.0
17/04:30am 11.8 9.1 5.4 65 3.0 ENE 9 11 5 6 1009.5 1009.5 0.0
17/04:00am 12.0 10.0 6.1 67 2.8 ESE 6 7 3 4 1009.2 1009.2 0.0
17/03:30am 11.0 8.7 5.5 69 2.5 SE 7 7 4 4 1009.2 1009.2 0.0
17/03:00am 11.8 9.4 5.2 64 3.0 SE 7 9 4 5 1009.1 1009.1 0.0
17/02:30am 12.3 9.3 5.9 65 3.0 SSE 11 13 6 7 1009.1 1009.1 0.0
17/02:00am 12.6 9.6 6.0 64 3.1 SSE 11 13 6 7 1009.2 1009.2 0.0
17/01:30am 13.6 10.6 6.2 61 3.5 SSE 11 15 6 8 1009.4 1009.4 0.0
17/01:00am 13.6 10.6 6.0 60 3.6 SSE 11 15 6 8 1009.4 1009.4 0.0
17/12:30am 14.1 10.2 5.5 56 4.1 S 15 20 8 11 1009.8 1009.8 0.0
17/12:00am 15.1 10.9 5.6 53 4.5 S 17 22 9 12 1009.9 1009.9 0.0
 
Date/Time
CDT
Tmp

°C
App
Tmp
°C
Dew
Point
°C
Rel
Hum
%
Delta-T

°C
Wind Press
QNH
hPa
Press
MSL
hPa
Rain
since
9 am
mm
Dir
 
Spd
km/h
Gust
km/h
Spd
kts
Gust
kts
16/11:30pm 15.5 10.7 5.4 51 4.8 S 20 30 11 16 1009.7 1009.7 0.0
16/11:00pm 16.3 11.1 5.3 48 5.3 S 22 28 12 15 1009.6 1009.6 0.0

Latest Capital City Observations: Canberra | Sydney | Melbourne | Brisbane | Adelaide | Perth | Hobart | Darwin

Other Formats:

Comma delimited format used in spreadsheet applications
http://www.bom.gov.au/fwo/IDS60901/IDS60901.95677.axf

JavaScript Object Notation format (JSON) in row-major order
http://www.bom.gov.au/fwo/IDS60901/IDS60901.95677.json